Time;durP1;ratioP1;P1;durP2;ratioP2;P2;SDS_P1;SDS_P2;PMS_P1;PMS_P2;Temp;Humidity;BMP_temperature;BMP_pressure;BME280_temperature;BME280_humidity;BME280_pressure;Samples;Min_cycle;Max_cycle;Signal;HPM_P1;HPM_P2
2022/03/21 00:02:24;;;;;;;206.67;85.47;;;;;;;;;;5031457;28;20052;-70
2022/03/21 00:04:49;;;;;;;223.07;86.60;;;;;;;;;;5049105;28;20182;-70
2022/03/21 00:07:16;;;;;;;209.43;85.70;;;;;;;;;;5049732;28;20124;-70
2022/03/21 00:09:42;;;;;;;195.60;86.27;;;;;;;;;;5049567;28;20045;-71
2022/03/21 00:12:08;;;;;;;188.23;88.53;;;;;;;;;;5049845;28;20041;-70
2022/03/21 00:14:34;;;;;;;210.63;91.37;;;;;;;;;;5048306;28;20419;-71
2022/03/21 00:17:00;;;;;;;209.57;90.70;;;;;;;;;;5044275;28;20033;-71
2022/03/21 00:19:26;;;;;;;194.73;90.00;;;;;;;;;;5046683;28;20044;-71
2022/03/21 00:21:52;;;;;;;196.30;87.20;;;;;;;;;;5049300;28;20047;-71
2022/03/21 00:24:18;;;;;;;249.93;101.63;;;;;;;;;;5048782;28;20140;-71
2022/03/21 00:26:44;;;;;;;217.77;94.33;;;;;;;;;;5040841;28;20060;-70
2022/03/21 00:29:11;;;;;;;186.40;89.97;;;;;;;;;;5049389;28;20041;-71
2022/03/21 00:31:37;;;;;;;209.20;93.33;;;;;;;;;;5048430;28;20106;-71
2022/03/21 00:34:03;;;;;;;204.90;90.97;;;;;;;;;;5049370;28;20123;-71
2022/03/21 00:36:29;;;;;;;197.87;91.87;;;;;;;;;;5047214;28;20549;-71
2022/03/21 00:38:57;;;;;;;177.90;85.93;;;;;;;;;;5048248;28;20156;-71
2022/03/21 00:41:25;;;;;;;199.60;90.77;;;;;;;;;;5041081;28;20053;-71
2022/03/21 00:43:52;;;;;;;207.70;91.73;;;;;;;;;;5041030;28;20135;-71
2022/03/21 00:46:18;;;;;;;216.67;92.57;;;;;;;;;;5043989;28;20052;-71
2022/03/21 00:48:44;;;;;;;366.53;114.27;;;;;;;;;;5045436;28;20041;-71
2022/03/21 00:51:11;;;;;;;361.13;114.07;;;;;;;;;;5045224;28;20046;-71
2022/03/21 00:53:37;;;;;;;365.90;111.87;;;;;;;;;;5037295;28;20471;-71
2022/03/21 00:56:03;;;;;;;348.43;110.37;;;;;;;;;;5040248;28;20208;-71
2022/03/21 00:58:29;;;;;;;299.90;101.80;;;;;;;;;;5049172;28;20098;-71
2022/03/21 01:00:56;;;;;;;159.10;73.90;;;;;;;;;;5048701;28;20041;-71
2022/03/21 01:03:23;;;;;;;201.17;85.27;;;;;;;;;;5049205;28;20049;-71
2022/03/21 01:05:49;;;;;;;198.73;88.60;;;;;;;;;;5040116;28;20047;-71
2022/03/21 01:08:15;;;;;;;255.87;94.93;;;;;;;;;;5045467;28;20117;-71
2022/03/21 01:10:41;;;;;;;174.23;78.27;;;;;;;;;;5044105;28;20546;-71
2022/03/21 01:13:07;;;;;;;179.97;84.33;;;;;;;;;;5048591;28;20044;-71
2022/03/21 01:15:34;;;;;;;165.90;80.50;;;;;;;;;;5040389;28;20084;-71
2022/03/21 01:18:00;;;;;;;225.70;92.53;;;;;;;;;;5046010;28;20053;-71
2022/03/21 01:20:26;;;;;;;156.20;80.03;;;;;;;;;;5039946;28;20080;-71
2022/03/21 01:22:52;;;;;;;203.07;89.63;;;;;;;;;;5048921;28;20065;-71
2022/03/21 01:25:19;;;;;;;180.20;83.43;;;;;;;;;;5047272;28;20492;-71
2022/03/21 01:27:45;;;;;;;145.07;76.60;;;;;;;;;;5048594;28;20053;-71
2022/03/21 01:30:13;;;;;;;163.30;84.03;;;;;;;;;;5031958;28;20492;-71
2022/03/21 01:32:42;;;;;;;169.57;81.07;;;;;;;;;;5048637;28;20111;-71
2022/03/21 01:35:08;;;;;;;149.70;75.73;;;;;;;;;;5048313;28;20590;-71
2022/03/21 01:37:34;;;;;;;159.70;75.57;;;;;;;;;;5047273;28;20049;-72
2022/03/21 01:40:00;;;;;;;160.30;78.87;;;;;;;;;;5047813;28;20503;-72
2022/03/21 01:42:26;;;;;;;165.03;80.57;;;;;;;;;;5043582;28;20059;-72
2022/03/21 01:44:53;;;;;;;165.33;81.20;;;;;;;;;;5048213;28;20040;-72
2022/03/21 01:47:20;;;;;;;183.20;82.80;;;;;;;;;;5047934;28;20049;-72
2022/03/21 01:49:46;;;;;;;189.93;81.87;;;;;;;;;;5043473;28;20045;-71
2022/03/21 01:52:13;;;;;;;179.03;82.80;;;;;;;;;;5045185;28;20124;-71
2022/03/21 01:57:24;;;;;;;202.30;86.93;;;;;;;;;;5038384;28;20041;-71
2022/03/21 01:59:50;;;;;;;186.50;84.00;;;;;;;;;;5041082;28;20037;-71
2022/03/21 02:02:16;;;;;;;240.47;90.77;;;;;;;;;;5046376;28;20048;-71
2022/03/21 02:04:42;;;;;;;261.60;89.83;;;;;;;;;;5044616;28;20049;-71
2022/03/21 02:07:09;;;;;;;199.57;84.83;;;;;;;;;;5042693;28;20513;-71
2022/03/21 02:09:36;;;;;;;232.77;89.77;;;;;;;;;;5045383;28;20048;-71
2022/03/21 02:12:03;;;;;;;261.07;95.70;;;;;;;;;;5042654;28;20048;-71
2022/03/21 02:14:30;;;;;;;251.67;93.30;;;;;;;;;;5044427;28;20134;-70
2022/03/21 02:16:56;;;;;;;262.07;93.47;;;;;;;;;;5036532;28;20045;-70
2022/03/21 02:19:22;;;;;;;194.67;84.90;;;;;;;;;;5044701;28;20120;-70
2022/03/21 02:21:55;;;;;;;204.63;85.23;;;;;;;;;;5036151;28;20474;-70
2022/03/21 02:24:25;;;;;;;183.63;80.57;;;;;;;;;;5044051;28;20152;-70
2022/03/21 02:26:52;;;;;;;221.13;88.77;;;;;;;;;;5037967;28;20099;-69
2022/03/21 02:29:19;;;;;;;190.17;83.10;;;;;;;;;;5047219;28;20340;-69
2022/03/21 02:31:46;;;;;;;217.37;90.70;;;;;;;;;;5043387;28;20073;-69
2022/03/21 02:34:12;;;;;;;188.13;79.43;;;;;;;;;;5050055;28;20404;-69
2022/03/21 02:36:38;;;;;;;215.40;84.03;;;;;;;;;;5043027;28;20557;-69
2022/03/21 02:39:04;;;;;;;172.07;76.83;;;;;;;;;;5043520;28;20040;-69
2022/03/21 02:41:30;;;;;;;163.10;72.80;;;;;;;;;;5043273;28;20530;-69
2022/03/21 02:43:57;;;;;;;196.00;80.57;;;;;;;;;;5043336;28;20295;-69
2022/03/21 02:46:23;;;;;;;172.23;75.53;;;;;;;;;;5051654;28;20049;-68
2022/03/21 02:48:50;;;;;;;174.63;73.97;;;;;;;;;;5050956;28;20119;-69
2022/03/21 02:51:18;;;;;;;185.83;73.93;;;;;;;;;;5051143;28;20812;-69
2022/03/21 02:53:46;;;;;;;161.30;69.67;;;;;;;;;;5042922;28;20045;-68
2022/03/21 02:56:12;;;;;;;188.40;76.27;;;;;;;;;;5051427;28;20047;-68
2022/03/21 02:58:38;;;;;;;199.53;74.23;;;;;;;;;;5050871;28;20049;-68
2022/03/21 03:01:11;;;;;;;170.90;69.93;;;;;;;;;;5051284;28;20259;-68
2022/03/21 03:03:37;;;;;;;169.15;70.78;;;;;;;;;;5051521;28;20080;-69
2022/03/21 03:06:03;;;;;;;193.77;74.70;;;;;;;;;;5051305;28;20051;-68
2022/03/21 03:08:29;;;;;;;154.77;66.10;;;;;;;;;;5051150;28;20068;-68
2022/03/21 03:10:56;;;;;;;155.97;66.83;;;;;;;;;;5050934;28;20045;-68
2022/03/21 03:13:22;;;;;;;196.77;72.87;;;;;;;;;;5049119;28;20310;-68
2022/03/21 03:15:48;;;;;;;186.13;70.63;;;;;;;;;;5050480;28;20574;-68
2022/03/21 03:18:14;;;;;;;160.20;62.80;;;;;;;;;;5050689;28;20562;-69
2022/03/21 03:20:48;;;;;;;159.87;63.00;;;;;;;;;;5043266;28;20045;-68
2022/03/21 03:23:14;;;;;;;196.43;71.90;;;;;;;;;;5039272;28;20519;-68
2022/03/21 03:25:40;;;;;;;186.70;67.20;;;;;;;;;;5046058;28;20789;-68
2022/03/21 03:28:06;;;;;;;253.77;77.37;;;;;;;;;;5050353;28;20072;-68
2022/03/21 03:30:34;;;;;;;152.50;61.97;;;;;;;;;;5050603;28;20661;-68
2022/03/21 03:33:00;;;;;;;158.00;60.73;;;;;;;;;;5042479;28;20057;-68
2022/03/21 03:35:26;;;;;;;149.47;61.90;;;;;;;;;;5050555;28;20314;-68
2022/03/21 03:37:52;;;;;;;193.60;67.27;;;;;;;;;;5048443;28;20044;-68
2022/03/21 03:40:19;;;;;;;346.80;83.17;;;;;;;;;;5049495;28;20040;-69
2022/03/21 03:42:46;;;;;;;237.17;73.17;;;;;;;;;;5042169;28;20460;-68
2022/03/21 03:45:13;;;;;;;246.63;72.90;;;;;;;;;;5042299;28;20134;-68
2022/03/21 03:47:40;;;;;;;179.67;62.20;;;;;;;;;;5050338;28;20049;-68
2022/03/21 03:50:06;;;;;;;199.67;67.27;;;;;;;;;;5042049;28;20041;-68
2022/03/21 03:52:32;;;;;;;216.00;71.80;;;;;;;;;;5049844;28;20037;-68
2022/03/21 03:54:58;;;;;;;180.00;67.27;;;;;;;;;;5033973;28;20357;-68
2022/03/21 03:57:24;;;;;;;157.57;60.97;;;;;;;;;;5050188;28;20837;-68
2022/03/21 03:59:50;;;;;;;183.80;63.80;;;;;;;;;;5049719;28;20394;-69
2022/03/21 04:02:16;;;;;;;208.00;66.87;;;;;;;;;;5047973;28;20292;-68
2022/03/21 04:04:42;;;;;;;200.07;64.77;;;;;;;;;;5035951;28;20310;-69
2022/03/21 04:07:09;;;;;;;174.03;61.13;;;;;;;;;;5041453;28;20288;-68
2022/03/21 04:09:35;;;;;;;169.17;62.50;;;;;;;;;;5050357;28;20284;-68
2022/03/21 04:12:02;;;;;;;174.77;59.77;;;;;;;;;;5048873;28;20315;-68
2022/03/21 04:14:28;;;;;;;177.10;61.27;;;;;;;;;;5047081;28;20045;-68
2022/03/21 04:16:55;;;;;;;145.20;55.23;;;;;;;;;;5043887;28;20311;-68
2022/03/21 04:19:21;;;;;;;111.97;49.80;;;;;;;;;;5049672;28;20824;-68
2022/03/21 04:21:47;;;;;;;153.53;56.47;;;;;;;;;;5042981;28;20382;-68
2022/03/21 04:24:13;;;;;;;202.20;58.33;;;;;;;;;;5049776;28;20128;-68
2022/03/21 04:26:39;;;;;;;147.87;50.83;;;;;;;;;;5041117;28;20362;-68
2022/03/21 04:29:06;;;;;;;176.53;60.10;;;;;;;;;;5041504;28;20052;-68
2022/03/21 04:31:32;;;;;;;164.27;56.33;;;;;;;;;;5040345;28;20295;-67
2022/03/21 04:33:58;;;;;;;185.53;61.23;;;;;;;;;;5046468;28;20041;-68
2022/03/21 04:36:24;;;;;;;184.33;60.50;;;;;;;;;;5039686;28;20312;-67
2022/03/21 04:38:50;;;;;;;204.47;60.17;;;;;;;;;;5042038;28;20298;-68
2022/03/21 04:41:17;;;;;;;187.47;56.50;;;;;;;;;;5048301;28;20350;-68
2022/03/21 04:43:43;;;;;;;143.47;50.60;;;;;;;;;;5041181;28;20298;-68
2022/03/21 04:46:09;;;;;;;159.63;54.13;;;;;;;;;;5049192;28;20374;-68
2022/03/21 04:48:35;;;;;;;138.63;44.17;;;;;;;;;;5048533;28;20291;-68
2022/03/21 04:51:01;;;;;;;140.03;42.40;;;;;;;;;;5049255;28;20279;-68
2022/03/21 04:53:27;;;;;;;304.40;50.00;;;;;;;;;;5048837;28;20306;-67
2022/03/21 04:55:53;;;;;;;172.07;42.87;;;;;;;;;;5042358;28;20316;-67
2022/03/21 04:58:19;;;;;;;158.43;45.73;;;;;;;;;;5037565;28;20288;-68
2022/03/21 05:00:46;;;;;;;96.77;37.50;;;;;;;;;;5048353;28;20295;-68
2022/03/21 05:03:11;;;;;;;93.10;39.63;;;;;;;;;;5048962;28;20294;-68
2022/03/21 05:05:38;;;;;;;90.50;37.17;;;;;;;;;;5034056;28;20292;-68
2022/03/21 05:08:05;;;;;;;84.13;38.77;;;;;;;;;;5047930;28;20529;-69
2022/03/21 05:10:31;;;;;;;89.20;38.40;;;;;;;;;;5038530;28;20296;-68
2022/03/21 05:12:58;;;;;;;98.50;36.63;;;;;;;;;;5038693;28;20295;-68
2022/03/21 05:15:24;;;;;;;84.00;34.30;;;;;;;;;;5048317;28;20307;-67
2022/03/21 05:17:54;;;;;;;89.20;36.23;;;;;;;;;;5037094;28;20302;-68
2022/03/21 05:20:20;;;;;;;86.07;33.33;;;;;;;;;;5036057;28;20296;-67
2022/03/21 05:31:06;;;;;;;55.13;25.57;;;;;;;;;;5047723;28;20790;-68
2022/03/21 05:36:17;;;;;;;47.50;23.30;;;;;;;;;;5039341;28;20334;-68
2022/03/21 05:38:44;;;;;;;48.53;24.67;;;;;;;;;;5043950;28;20327;-67
2022/03/21 05:41:10;;;;;;;54.07;26.47;;;;;;;;;;5047363;28;20748;-68
2022/03/21 05:43:37;;;;;;;61.30;26.20;;;;;;;;;;5033210;28;20298;-67
2022/03/21 05:46:03;;;;;;;64.97;28.20;;;;;;;;;;5043859;28;20433;-68
2022/03/21 05:51:15;;;;;;;60.80;26.77;;;;;;;;;;5045378;28;20316;-68
2022/03/21 05:53:41;;;;;;;62.43;28.40;;;;;;;;;;5041084;28;20293;-68
2022/03/21 05:56:08;;;;;;;62.37;28.33;;;;;;;;;;5045749;28;20777;-68
2022/03/21 05:58:34;;;;;;;63.97;27.17;;;;;;;;;;5045820;28;20294;-68
2022/03/21 06:01:00;;;;;;;59.03;26.13;;;;;;;;;;5048475;28;20291;-68
2022/03/21 06:03:26;;;;;;;55.17;25.37;;;;;;;;;;5043784;28;20295;-68
2022/03/21 06:05:57;;;;;;;51.80;25.43;;;;;;;;;;5045207;28;20295;-68
2022/03/21 06:08:24;;;;;;;56.00;26.17;;;;;;;;;;5054907;28;20413;-68
2022/03/21 06:10:51;;;;;;;94.67;34.73;;;;;;;;;;5053627;28;20290;-67
2022/03/21 06:13:17;;;;;;;72.27;28.97;;;;;;;;;;5053901;28;20287;-67
2022/03/21 06:15:45;;;;;;;88.63;31.60;;;;;;;;;;5047868;28;20322;-67
2022/03/21 06:18:12;;;;;;;62.03;27.10;;;;;;;;;;5051959;28;20295;-68
2022/03/21 06:20:39;;;;;;;73.47;29.70;;;;;;;;;;5050135;28;20371;-68
2022/03/21 06:23:06;;;;;;;53.00;23.93;;;;;;;;;;5051945;28;20338;-67
2022/03/21 06:25:32;;;;;;;46.87;22.97;;;;;;;;;;5053801;28;20692;-68
2022/03/21 06:27:59;;;;;;;44.43;22.93;;;;;;;;;;5052090;28;20837;-68
2022/03/21 06:30:25;;;;;;;64.47;26.33;;;;;;;;;;5044366;28;20811;-68
2022/03/21 06:32:53;;;;;;;61.23;26.07;;;;;;;;;;5053776;28;20287;-67
2022/03/21 06:35:19;;;;;;;64.20;27.93;;;;;;;;;;5051994;28;20861;-68
2022/03/21 06:37:46;;;;;;;53.50;23.87;;;;;;;;;;5048035;28;20271;-67
2022/03/21 06:40:12;;;;;;;59.47;27.97;;;;;;;;;;5050193;28;20283;-67
2022/03/21 06:42:38;;;;;;;71.20;30.17;;;;;;;;;;5045811;28;20619;-67
2022/03/21 06:45:04;;;;;;;63.23;27.87;;;;;;;;;;5053436;28;20374;-68
2022/03/21 06:47:30;;;;;;;80.57;32.73;;;;;;;;;;5052697;28;20292;-68
2022/03/21 06:49:56;;;;;;;89.10;34.40;;;;;;;;;;5048777;28;20296;-68
2022/03/21 06:52:22;;;;;;;88.37;35.23;;;;;;;;;;5050516;28;20736;-68
2022/03/21 06:54:49;;;;;;;103.90;38.23;;;;;;;;;;5050026;28;20331;-67
2022/03/21 06:57:16;;;;;;;99.17;36.93;;;;;;;;;;5054578;28;20749;-68
2022/03/21 06:59:43;;;;;;;103.60;36.07;;;;;;;;;;5050222;28;20292;-68
2022/03/21 07:02:09;;;;;;;76.47;30.30;;;;;;;;;;5053716;28;20295;-67
2022/03/21 07:04:35;;;;;;;85.43;33.67;;;;;;;;;;5052466;28;20836;-67
2022/03/21 07:07:01;;;;;;;104.93;34.63;;;;;;;;;;5053781;28;20386;-67
2022/03/21 07:09:27;;;;;;;105.70;38.30;;;;;;;;;;5043468;28;20307;-68
2022/03/21 07:11:54;;;;;;;68.17;32.30;;;;;;;;;;5047362;28;20288;-68
2022/03/21 07:14:20;;;;;;;70.73;32.20;;;;;;;;;;5050541;28;20879;-68
2022/03/21 07:16:46;;;;;;;88.23;37.23;;;;;;;;;;5042235;28;20299;-68
2022/03/21 07:19:12;;;;;;;76.27;34.97;;;;;;;;;;5049455;28;20670;-68
2022/03/21 07:21:38;;;;;;;90.00;36.60;;;;;;;;;;5050352;28;20363;-68
2022/03/21 07:24:04;;;;;;;85.60;37.20;;;;;;;;;;5048156;28;20041;-68
2022/03/21 07:26:31;;;;;;;82.03;34.20;;;;;;;;;;5048783;28;20048;-68
2022/03/21 07:28:57;;;;;;;87.80;39.10;;;;;;;;;;5049579;28;20292;-68
2022/03/21 07:31:23;;;;;;;98.20;40.87;;;;;;;;;;5050372;28;20332;-68
2022/03/21 07:33:49;;;;;;;81.83;38.53;;;;;;;;;;5048075;28;20303;-68
2022/03/21 07:36:15;;;;;;;94.77;41.47;;;;;;;;;;5049197;28;20319;-69
2022/03/21 07:38:41;;;;;;;76.80;36.87;;;;;;;;;;5049594;28;20296;-69
2022/03/21 07:41:07;;;;;;;82.77;40.80;;;;;;;;;;5048093;28;20789;-69
2022/03/21 07:43:34;;;;;;;105.57;44.17;;;;;;;;;;5045067;28;20043;-69
2022/03/21 07:48:45;;;;;;;85.30;39.73;;;;;;;;;;5042295;28;20284;-70
2022/03/21 07:51:11;;;;;;;93.40;43.30;;;;;;;;;;5049726;28;20045;-70
2022/03/21 07:53:38;;;;;;;81.37;40.50;;;;;;;;;;5047679;28;20052;-70
2022/03/21 07:56:04;;;;;;;78.47;40.07;;;;;;;;;;5042027;28;20056;-71
2022/03/21 07:58:33;;;;;;;103.50;46.53;;;;;;;;;;5038717;28;20053;-71
2022/03/21 08:01:00;;;;;;;119.83;48.87;;;;;;;;;;5029089;28;20073;-71
2022/03/21 08:03:26;;;;;;;65.27;37.10;;;;;;;;;;5029566;28;20045;-72
2022/03/21 08:05:53;;;;;;;113.60;46.03;;;;;;;;;;5029782;28;20041;-72
2022/03/21 08:08:20;;;;;;;78.80;40.97;;;;;;;;;;5029282;28;20049;-72
2022/03/21 08:10:49;;;;;;;73.43;35.00;;;;;;;;;;5029943;28;20041;-73
2022/03/21 08:13:19;;;;;;;82.77;37.87;;;;;;;;;;5030183;28;20053;-73
2022/03/21 08:15:45;;;;;;;58.27;32.70;;;;;;;;;;5029640;28;20420;-74
2022/03/21 08:18:13;;;;;;;64.67;34.80;;;;;;;;;;5029920;28;20041;-74
2022/03/21 08:20:40;;;;;;;65.40;33.17;;;;;;;;;;5029985;28;20045;-74
2022/03/21 08:23:07;;;;;;;61.47;32.27;;;;;;;;;;5029942;28;20128;-74
2022/03/21 08:25:34;;;;;;;54.33;31.23;;;;;;;;;;5029578;28;20046;-74
2022/03/21 08:28:00;;;;;;;59.83;32.27;;;;;;;;;;5030039;28;20046;-74
2022/03/21 08:30:29;;;;;;;48.03;27.40;;;;;;;;;;5029351;28;20061;-74
2022/03/21 08:32:55;;;;;;;50.63;26.67;;;;;;;;;;5029440;28;20066;-74
2022/03/21 08:35:21;;;;;;;49.03;28.50;;;;;;;;;;5029546;28;20132;-74
2022/03/21 08:37:47;;;;;;;54.67;29.87;;;;;;;;;;5029327;28;20228;-74
2022/03/21 08:40:14;;;;;;;45.07;25.97;;;;;;;;;;5029675;28;20049;-74
2022/03/21 08:42:40;;;;;;;49.33;26.63;;;;;;;;;;5029255;28;20041;-74
2022/03/21 08:45:07;;;;;;;41.30;25.13;;;;;;;;;;5029728;28;20050;-74
2022/03/21 08:47:34;;;;;;;43.47;26.60;;;;;;;;;;5029210;28;20064;-74
2022/03/21 08:50:01;;;;;;;44.83;25.27;;;;;;;;;;5037918;28;20052;-74
2022/03/21 08:52:27;;;;;;;43.23;26.03;;;;;;;;;;5044823;28;20400;-73
2022/03/21 08:54:53;;;;;;;49.73;27.93;;;;;;;;;;5045024;28;20049;-73
2022/03/21 08:57:19;;;;;;;51.63;30.10;;;;;;;;;;5048443;28;20048;-75
2022/03/21 08:59:47;;;;;;;46.70;26.03;;;;;;;;;;5041383;28;20124;-74
2022/03/21 09:02:13;;;;;;;43.53;27.73;;;;;;;;;;5043415;28;20045;-74
2022/03/21 09:04:40;;;;;;;42.07;25.17;;;;;;;;;;5049447;28;20052;-75
2022/03/21 09:07:08;;;;;;;36.53;24.73;;;;;;;;;;5047680;28;20359;-75
2022/03/21 09:09:34;;;;;;;35.03;23.23;;;;;;;;;;5048767;28;20049;-75
2022/03/21 09:12:00;;;;;;;37.30;21.27;;;;;;;;;;5048447;28;20064;-74
2022/03/21 09:14:26;;;;;;;27.37;19.13;;;;;;;;;;5047573;28;20163;-74
2022/03/21 09:16:53;;;;;;;35.60;20.77;;;;;;;;;;5024090;28;20051;-74
2022/03/21 09:19:19;;;;;;;24.43;17.80;;;;;;;;;;5046749;28;20044;-74
2022/03/21 09:21:46;;;;;;;26.03;17.73;;;;;;;;;;5048068;28;20120;-74
2022/03/21 09:24:13;;;;;;;24.93;16.83;;;;;;;;;;5047343;28;20523;-74
2022/03/21 09:26:39;;;;;;;23.23;16.63;;;;;;;;;;5047792;28;20555;-74
2022/03/21 09:29:05;;;;;;;25.80;17.60;;;;;;;;;;5037040;28;20581;-74
2022/03/21 09:31:41;;;;;;;26.23;16.73;;;;;;;;;;5028774;28;20049;-73
2022/03/21 09:34:11;;;;;;;24.50;16.40;;;;;;;;;;5042687;28;20114;-73
2022/03/21 09:36:37;;;;;;;26.07;15.93;;;;;;;;;;5047532;28;20095;-74
2022/03/21 09:39:04;;;;;;;23.07;16.53;;;;;;;;;;5047800;28;20045;-73
2022/03/21 09:41:30;;;;;;;24.07;16.40;;;;;;;;;;5046652;28;20503;-73
2022/03/21 09:44:10;;;;;;;25.63;17.53;;;;;;;;;;5048264;28;20124;-72
2022/03/21 09:46:40;;;;;;;24.67;15.80;;;;;;;;;;5047683;28;20048;-72
2022/03/21 09:49:07;;;;;;;26.63;16.97;;;;;;;;;;5047905;28;20041;-72
2022/03/21 09:51:33;;;;;;;25.70;16.87;;;;;;;;;;5048373;28;20129;-72
2022/03/21 09:54:00;;;;;;;22.07;15.63;;;;;;;;;;5047750;28;20123;-72
2022/03/21 09:56:26;;;;;;;22.97;15.60;;;;;;;;;;5047672;28;20051;-72
2022/03/21 09:58:59;;;;;;;23.23;16.80;;;;;;;;;;5046787;28;20033;-72
2022/03/21 10:01:25;;;;;;;25.98;18.05;;;;;;;;;;5048058;28;20053;-72
2022/03/21 10:03:52;;;;;;;24.63;16.47;;;;;;;;;;5048309;28;20045;-71
2022/03/21 10:06:34;;;;;;;24.80;16.87;;;;;;;;;;5043787;28;20423;-71
2022/03/21 10:09:16;;;;;;;27.57;17.60;;;;;;;;;;5048676;28;20048;-71
2022/03/21 10:11:53;;;;;;;27.30;17.47;;;;;;;;;;5044185;28;20045;-69
2022/03/21 10:14:22;;;;;;;26.93;18.30;;;;;;;;;;5044978;28;20398;-68
2022/03/21 10:16:55;;;;;;;23.13;16.33;;;;;;;;;;5047130;28;20041;-68
2022/03/21 10:19:21;;;;;;;28.37;17.57;;;;;;;;;;5047456;28;20406;-68
2022/03/21 10:22:00;;;;;;;21.50;16.50;;;;;;;;;;5046413;28;20049;-68
2022/03/21 10:24:26;;;;;;;26.87;17.07;;;;;;;;;;5047165;28;20053;-68
2022/03/21 10:26:53;;;;;;;27.90;16.63;;;;;;;;;;5047483;28;20064;-68
2022/03/21 10:29:20;;;;;;;24.00;17.53;;;;;;;;;;5047262;28;20120;-68
2022/03/21 10:31:52;;;;;;;25.17;16.60;;;;;;;;;;5046229;28;20076;-68
2022/03/21 10:34:22;;;;;;;26.20;17.50;;;;;;;;;;5046510;28;20120;-68
2022/03/21 10:36:58;;;;;;;31.73;17.27;;;;;;;;;;5047103;28;20491;-68
2022/03/21 10:39:24;;;;;;;27.27;18.80;;;;;;;;;;5047244;28;20132;-68
2022/03/21 10:41:55;;;;;;;24.83;17.73;;;;;;;;;;5047057;28;20037;-68
2022/03/21 10:44:21;;;;;;;28.03;19.13;;;;;;;;;;5047094;28;20099;-68
2022/03/21 10:46:51;;;;;;;23.07;16.70;;;;;;;;;;5038810;28;20081;-68
2022/03/21 10:49:25;;;;;;;24.37;16.67;;;;;;;;;;5049619;28;20048;-68
2022/03/21 10:51:53;;;;;;;26.97;18.53;;;;;;;;;;5044466;28;20041;-67
2022/03/21 10:54:38;;;;;;;30.07;18.13;;;;;;;;;;5039897;28;20056;-68
2022/03/21 10:57:05;;;;;;;27.83;17.77;;;;;;;;;;5050458;28;20052;-68
2022/03/21 10:59:31;;;;;;;22.67;18.13;;;;;;;;;;5050214;28;20410;-68
2022/03/21 11:02:20;;;;;;;25.93;16.87;;;;;;;;;;5050026;28;20049;-68
2022/03/21 11:04:46;;;;;;;23.47;16.60;;;;;;;;;;5050012;28;20165;-68
2022/03/21 11:07:13;;;;;;;27.90;18.37;;;;;;;;;;5050940;28;20043;-68
2022/03/21 11:09:42;;;;;;;26.93;18.20;;;;;;;;;;5050306;28;20384;-68
2022/03/21 11:12:09;;;;;;;29.33;18.63;;;;;;;;;;5049202;28;20051;-67
2022/03/21 11:14:41;;;;;;;23.50;18.10;;;;;;;;;;5048551;28;20053;-67
2022/03/21 11:17:08;;;;;;;22.98;16.95;;;;;;;;;;5050184;28;20069;-67
2022/03/21 11:19:34;;;;;;;28.13;16.80;;;;;;;;;;5050687;28;20036;-67
2022/03/21 11:22:00;;;;;;;26.17;17.00;;;;;;;;;;5051376;28;20041;-67
2022/03/21 11:24:30;;;;;;;33.57;18.40;;;;;;;;;;5051347;28;20044;-68
2022/03/21 11:27:15;;;;;;;23.80;17.47;;;;;;;;;;5050496;28;20435;-67
2022/03/21 11:29:46;;;;;;;25.27;17.77;;;;;;;;;;5050840;28;20045;-67
2022/03/21 11:32:30;;;;;;;25.50;17.03;;;;;;;;;;5050898;28;20052;-68
2022/03/21 11:35:03;;;;;;;23.23;16.00;;;;;;;;;;5050631;28;20048;-67
2022/03/21 11:37:30;;;;;;;21.73;16.48;;;;;;;;;;5051134;28;20076;-67
2022/03/21 11:40:15;;;;;;;23.67;17.63;;;;;;;;;;5050205;28;20442;-67
2022/03/21 11:42:41;;;;;;;25.23;16.53;;;;;;;;;;5050775;28;20518;-68
2022/03/21 11:45:23;;;;;;;24.20;16.97;;;;;;;;;;5049881;28;20131;-68
2022/03/21 11:47:49;;;;;;;18.43;15.97;;;;;;;;;;5050911;28;20094;-70
2022/03/21 11:50:25;;;;;;;27.87;17.37;;;;;;;;;;5050430;28;20053;-68
2022/03/21 11:53:12;;;;;;;21.43;16.60;;;;;;;;;;5050417;28;20052;-68
2022/03/21 11:55:40;;;;;;;25.17;18.07;;;;;;;;;;5050213;28;20049;-68
2022/03/21 11:58:33;;;;;;;21.90;17.40;;;;;;;;;;5050124;28;20056;-68
2022/03/21 12:01:02;;;;;;;27.67;17.70;;;;;;;;;;5041229;28;20130;-68
2022/03/21 12:03:28;;;;;;;24.40;16.87;;;;;;;;;;5050561;28;20495;-68
2022/03/21 12:05:54;;;;;;;23.20;17.40;;;;;;;;;;5049539;28;20051;-68
2022/03/21 12:08:30;;;;;;;25.93;17.77;;;;;;;;;;5050540;28;20115;-68
2022/03/21 12:10:56;;;;;;;23.47;16.77;;;;;;;;;;5050167;28;20510;-68
2022/03/21 12:13:22;;;;;;;26.40;16.63;;;;;;;;;;5050166;28;20128;-68
2022/03/21 12:15:51;;;;;;;22.87;18.30;;;;;;;;;;5049764;28;20045;-68
2022/03/21 12:18:19;;;;;;;24.03;17.50;;;;;;;;;;5050139;28;20045;-68
2022/03/21 12:20:50;;;;;;;28.13;18.50;;;;;;;;;;5048151;28;20057;-68
2022/03/21 12:23:20;;;;;;;21.43;16.73;;;;;;;;;;5048391;28;20052;-68
2022/03/21 12:25:47;;;;;;;23.33;16.97;;;;;;;;;;5050149;28;20045;-68
2022/03/21 12:28:16;;;;;;;26.43;16.77;;;;;;;;;;5049302;28;20122;-68
2022/03/21 12:30:42;;;;;;;28.53;17.90;;;;;;;;;;5049868;28;20427;-68
2022/03/21 12:33:14;;;;;;;24.53;16.27;;;;;;;;;;5049884;28;20093;-68
2022/03/21 12:35:42;;;;;;;23.80;16.17;;;;;;;;;;5049501;28;20091;-68
2022/03/21 12:38:17;;;;;;;25.17;17.17;;;;;;;;;;5049830;28;20052;-68
2022/03/21 12:40:46;;;;;;;29.75;18.27;;;;;;;;;;5029538;28;20049;-68
2022/03/21 12:43:13;;;;;;;27.83;20.43;;;;;;;;;;5049066;28;20075;-68
2022/03/21 12:45:39;;;;;;;26.33;19.53;;;;;;;;;;5049465;28;20049;-68
2022/03/21 12:48:08;;;;;;;26.13;18.88;;;;;;;;;;5049337;28;20384;-68
2022/03/21 12:50:38;;;;;;;27.35;17.95;;;;;;;;;;5049758;28;20056;-68
2022/03/21 12:53:08;;;;;;;25.58;16.58;;;;;;;;;;5047971;28;20507;-68
2022/03/21 12:55:35;;;;;;;29.42;18.77;;;;;;;;;;5049062;28;20503;-68
2022/03/21 12:58:05;;;;;;;22.65;15.95;;;;;;;;;;5049465;28;20045;-68
2022/03/21 13:00:34;;;;;;;27.38;18.23;;;;;;;;;;5049046;28;20493;-68
2022/03/21 13:03:04;;;;;;;23.05;17.73;;;;;;;;;;5048912;28;20446;-68
2022/03/21 13:11:20;;;;;;;23.15;16.95;;;;;;;;;;5048558;28;20507;-68
2022/03/21 13:13:53;;;;;;;25.77;16.00;;;;;;;;;;5047793;28;20048;-68
2022/03/21 13:16:18;;;;;;;;;;;;;;;;;;5048400;28;20053;-68
2022/03/21 13:18:44;;;;;;;23.40;16.10;;;;;;;;;;5048878;28;20737;-68
2022/03/21 13:21:11;;;;;;;26.92;15.73;;;;;;;;;;5048988;28;20082;-68
2022/03/21 13:23:37;;;;;;;24.83;16.48;;;;;;;;;;5048205;28;20123;-68
2022/03/21 13:26:10;;;;;;;26.52;18.20;;;;;;;;;;5048560;28;20048;-68
2022/03/21 13:28:38;;;;;;;21.83;16.35;;;;;;;;;;5048488;28;20052;-68
2022/03/21 13:31:09;;;;;;;22.25;16.27;;;;;;;;;;5048684;28;20080;-68
2022/03/21 13:33:35;;;;;;;24.95;16.92;;;;;;;;;;5048223;28;20061;-68
2022/03/21 13:36:03;;;;;;;22.33;16.85;;;;;;;;;;5048098;28;20088;-68
2022/03/21 13:38:31;;;;;;;21.77;15.65;;;;;;;;;;5048208;28;20487;-68
2022/03/21 13:40:57;;;;;;;23.13;15.25;;;;;;;;;;5048419;28;20068;-68
2022/03/21 13:43:26;;;;;;;21.35;15.93;;;;;;;;;;5048217;28;20402;-68
2022/03/21 13:45:54;;;;;;;25.88;15.65;;;;;;;;;;5048269;28;20084;-68
2022/03/21 13:48:33;;;;;;;25.17;16.45;;;;;;;;;;5048704;28;20052;-69
2022/03/21 13:51:00;;;;;;;21.25;15.77;;;;;;;;;;5048495;28;20041;-69
2022/03/21 13:53:27;;;;;;;24.40;16.15;;;;;;;;;;5048568;28;20041;-69
2022/03/21 13:55:53;;;;;;;21.38;15.60;;;;;;;;;;5048435;28;20059;-69
2022/03/21 13:58:27;;;;;;;25.83;16.75;;;;;;;;;;5047989;28;20045;-69
2022/03/21 14:00:53;;;;;;;21.85;16.52;;;;;;;;;;5048370;28;20049;-69
2022/03/21 14:03:39;;;;;;;24.20;16.10;;;;;;;;;;5047922;28;20407;-69
2022/03/21 14:06:06;;;;;;;22.17;16.80;;;;;;;;;;5048147;28;20131;-69
2022/03/21 14:08:33;;;;;;;26.35;17.27;;;;;;;;;;5048248;28;20040;-69
2022/03/21 14:11:14;;;;;;;21.20;16.48;;;;;;;;;;5048198;28;20047;-68
2022/03/21 14:13:46;;;;;;;23.00;16.23;;;;;;;;;;5048098;28;20053;-68
2022/03/21 14:16:12;;;;;;;22.35;16.85;;;;;;;;;;5047747;28;20135;-68
2022/03/21 14:18:39;;;;;;;23.25;17.63;;;;;;;;;;5048321;28;20092;-69
2022/03/21 14:21:06;;;;;;;20.83;17.02;;;;;;;;;;5047757;28;20037;-69
2022/03/21 14:23:33;;;;;;;21.92;15.82;;;;;;;;;;5050645;28;20045;-69
2022/03/21 14:28:45;;;;;;;25.40;15.23;;;;;;;;;;5051670;28;20415;-68
2022/03/21 14:31:11;;;;;;;25.63;15.32;;;;;;;;;;5052013;28;20037;-68
2022/03/21 14:33:37;;;;;;;24.73;15.73;;;;;;;;;;5051743;28;20130;-68
2022/03/21 14:36:05;;;;;;;22.52;16.05;;;;;;;;;;5051213;28;20094;-68
2022/03/21 14:38:31;;;;;;;20.90;15.65;;;;;;;;;;5051928;28;20045;-68
2022/03/21 14:40:57;;;;;;;20.70;16.13;;;;;;;;;;5051753;28;20132;-68
2022/03/21 14:43:27;;;;;;;21.40;16.30;;;;;;;;;;5051327;28;20041;-68
2022/03/21 14:45:57;;;;;;;20.75;16.15;;;;;;;;;;5051070;28;20053;-68